Meteo Giornale » Osservazioni meteo Stati Uniti (USA) » Fayetteville/Springdale Northwest Arkansas
ore: 05:53 - Osservazioni Meteo Fayetteville/Springdale Northwest Arkansas
Lat. 36° 16' N Lon. 94° 18' W Alt. 392 metri s.l.m.
25 °C
Sereno
Temp. 24 Ore
24 °C
37 °C
Sud/Sud-Ovest
7.4 Km/h
Dew point 18 °C
Umidità 65 %
Visibilità 10 Km
Il sole sorge alle ore 06:48
Il sole tramonta alle ore 19:45
| Data e Ora | Cielo e Fenomeni | T °C | DP °C | Um. % | Pres. hPa | Vis. km | Vento km/h | |
|---|---|---|---|---|---|---|---|---|
| Oggi h: 05:53 | Sereno | 25 | 18 | 65 | 1018 | 10 | S/SO 7.4 | |
| Oggi h: 04:53 | Molto Nuvoloso | 26 | 18 | 61 | 1018 | 10 | N 0 | |
| Oggi h: 03:53 | Sereno | 26 | 18 | 61 | 1018 | 10 | S/SO 7.4 | |
| Oggi h: 02:53 | Coperto | 27 | 17 | 54 | 1018 | 10 | S 9.3 | |
| Oggi h: 01:53 | Molto Nuvoloso | 27 | 17 | 54 | 1018 | 10 | S 9.3 | |
| Oggi h: 00:53 | Sereno | 27 | 16 | 50 | 1018 | 10 | S/SE 11.1 | |
| Ieri h: 23:53 | Sereno | 27 | 16 | 50 | 1017 | 10 | S 7.4 | |
| Ieri h: 22:53 | Sereno | 28 | 14 | 42 | 1017 | 10 | S 13 | |
| Ieri h: 21:53 | Sereno | 29 | 15 | 42 | 1017 | 10 | S 11.1 | |
| Ieri h: 20:53 | Sereno | 30 | 15 | 40 | 1016 | 10 | S/SE 9.3 | |
| Ieri h: 19:53 | Sereno | 32 | 15 | 35 | 1016 | 14 | SO 7.4 | |
| Ieri h: 18:53 | Sereno | 36 | 14 | 26 | 1016 | 10 | S/SO 9.3 | |
| Ieri h: 17:53 | Sereno | 37 | 13 | 23 | 1016 | 10 | S/SE 24 | |
| Ieri h: 16:53 | Sereno | 37 | 14 | 25 | 1016 | 10 | S/SO 16.7 | |
| Ieri h: 15:53 | Poco Nuvoloso | 37 | 15 | 27 | 1016 | 10 | S 14.8 | |
| Ieri h: 14:53 | Poco Nuvoloso | 37 | 15 | 27 | 1017 | 10 | S 16.7 | |
| Ieri h: 13:55 | Poco Nuvoloso | 37 | 15 | 27 | 1018 | 10 | S 14.8 | |
| Ieri h: 13:53 | Poco Nuvoloso | 37 | 15 | 27 | 1018 | 10 | N 0 | |
| Ieri h: 12:53 | Molto Nuvoloso | 36 | 17 | 32 | 1018 | 10 | N 11.1 | |
| Ieri h: 11:53 | Sereno | 35 | 18 | 36 | 1019 | 10 | O/SO 16.7 | |
| Ieri h: 10:53 | Sereno | 33 | 18 | 41 | 1019 | 10 | S/SO 13 | |
| Ieri h: 09:53 | Sereno | 31 | 19 | 48 | 1019 | 10 | S 18.5 | |
| Ieri h: 08:53 | Sereno | 28 | 18 | 54 | 1019 | 10 | S/SO 13 | |
| Ieri h: 07:53 | Sereno | 26 | 18 | 61 | 1018 | 10 | S 7.4 | |
| Ieri h: 06:53 | Sereno | 24 | 17 | 64 | 1018 | 10 | S 9.3 | |



